createdAt,value
2019-04-20T00:00:30.541Z,0
2019-04-20T00:01:32.236Z,0
2019-04-20T00:02:29.621Z,0
2019-04-20T00:03:35.624Z,0
2019-04-20T00:04:35.267Z,0
2019-04-20T00:05:31.312Z,0
2019-04-20T00:06:41.701Z,0
2019-04-20T00:07:35.666Z,0
2019-04-20T00:08:36.514Z,0
2019-04-20T00:09:36.977Z,0
2019-04-20T00:10:45.237Z,0
2019-04-20T00:11:48.408Z,0
2019-04-20T00:12:52.077Z,0
2019-04-20T00:13:49.871Z,0
2019-04-20T00:14:39.106Z,0
2019-04-20T00:15:38.927Z,0
2019-04-20T00:16:39.898Z,0
2019-04-20T00:17:45.902Z,0
2019-04-20T00:18:47.958Z,0
2019-04-20T00:19:47.009Z,0
2019-04-20T00:20:42.226Z,0
2019-04-20T00:21:46.985Z,0
2019-04-20T00:22:48.707Z,0
2019-04-20T00:23:47.731Z,0
2019-04-20T00:24:45.417Z,0
2019-04-20T00:25:54.931Z,0
2019-04-20T00:27:19.282Z,0
2019-04-20T00:28:04.752Z,0
2019-04-20T00:29:07.007Z,0
2019-04-20T00:30:04.435Z,0
2019-04-20T00:31:07.227Z,0
2019-04-20T00:32:05.392Z,0
2019-04-20T00:33:01.802Z,0
2019-04-20T00:34:02.777Z,0
2019-04-20T00:34:53.952Z,0
2019-04-20T00:35:54.847Z,0
2019-04-20T00:36:56.032Z,0
2019-04-20T00:37:55.398Z,0
2019-04-20T00:38:59.753Z,0
2019-04-20T00:39:57.787Z,0
2019-04-20T00:41:02.729Z,0
2019-04-20T00:42:03.483Z,0
2019-04-20T00:43:00.360Z,0
2019-04-20T00:44:06.893Z,0
2019-04-20T00:45:08.397Z,0
2019-04-20T00:46:11.804Z,0
2019-04-20T00:47:12.027Z,0
2019-04-20T00:48:16.855Z,0
2019-04-20T00:49:20.641Z,0
2019-04-20T00:50:27.022Z,0
2019-04-20T00:51:27.869Z,0
2019-04-20T00:53:19.560Z,0
2019-04-20T00:54:09.443Z,0
2019-04-20T00:55:08.904Z,0
2019-04-20T00:56:09.997Z,0
2019-04-20T00:57:20.477Z,0
2019-04-20T00:58:21.213Z,0
2019-04-20T00:59:26.036Z,0
2019-04-20T01:00:32.446Z,0
2019-04-20T01:01:37.489Z,0
2019-04-20T01:02:30.172Z,0
2019-04-20T01:03:36.921Z,0
2019-04-20T01:04:37.816Z,0
2019-04-20T01:05:38.855Z,0
2019-04-20T01:06:34.098Z,0
2019-04-20T01:07:30.822Z,0
2019-04-20T01:08:19.619Z,0
2019-04-20T01:09:20.422Z,0
2019-04-20T01:10:21.607Z,0
2019-04-20T01:11:26.993Z,0
2019-04-20T01:12:26.311Z,0
2019-04-20T01:13:25.143Z,0
2019-04-20T01:14:37.554Z,0
2019-04-20T01:15:36.414Z,0
2019-04-20T01:16:36.822Z,0
2019-04-20T01:17:26.723Z,0
2019-04-20T01:18:27.412Z,0
2019-04-20T01:19:28.094Z,0
2019-04-20T01:20:28.781Z,0
2019-04-20T01:21:31.773Z,0
2019-04-20T01:22:40.289Z,0
2019-04-20T01:23:40.180Z,0
2019-04-20T01:24:37.112Z,0
2019-04-20T01:25:37.698Z,0
2019-04-20T01:26:41.913Z,0
2019-04-20T01:27:49.735Z,0
2019-04-20T01:28:51.227Z,0
2019-04-20T01:29:43.840Z,0
2019-04-20T01:30:43.152Z,0
2019-04-20T01:31:54.567Z,0
2019-04-20T01:32:55.149Z,0
2019-04-20T01:33:50.633Z,0
2019-04-20T01:34:53.311Z,0
2019-04-20T01:35:56.930Z,0
2019-04-20T01:36:55.693Z,0
2019-04-20T01:38:02.663Z,0
2019-04-20T01:38:56.774Z,0
2019-04-20T01:39:50.208Z,0
2019-04-20T01:40:44.490Z,0
2019-04-20T01:41:45.446Z,0
2019-04-20T01:42:46.736Z,0
2019-04-20T01:43:46.375Z,0
2019-04-20T01:44:50.298Z,0
2019-04-20T01:45:52.317Z,0
2019-04-20T01:46:53.291Z,0
2019-04-20T01:47:52.742Z,0
2019-04-20T01:48:50.613Z,0
2019-04-20T01:49:57.559Z,0
2019-04-20T01:50:59.625Z,0
2019-04-20T01:52:05.784Z,0
2019-04-20T01:53:03.492Z,0
2019-04-20T01:54:06.629Z,0
2019-04-20T01:55:11.414Z,0
2019-04-20T01:56:15.416Z,0
2019-04-20T01:57:04.768Z,0
2019-04-20T01:58:12.406Z,0
2019-04-20T01:59:10.647Z,0
2019-04-20T02:00:08.490Z,0
2019-04-20T02:00:59.511Z,0
2019-04-20T02:02:04.627Z,0
2019-04-20T02:03:02.375Z,0
2019-04-20T02:04:02.795Z,0
2019-04-20T02:05:11.320Z,0
2019-04-20T02:06:06.364Z,0
2019-04-20T02:07:04.943Z,0
2019-04-20T02:08:08.740Z,0
2019-04-20T02:09:09.511Z,0
2019-04-20T02:10:08.332Z,0
2019-04-20T02:11:07.400Z,0
2019-04-20T02:12:12.157Z,0
2019-04-20T02:13:07.596Z,0
2019-04-20T02:14:10.246Z,0
2019-04-20T02:15:17.133Z,0
2019-04-20T02:16:15.836Z,0
2019-04-20T02:17:20.008Z,0
2019-04-20T02:18:22.686Z,0
2019-04-20T02:19:27.841Z,0
2019-04-20T02:20:35.907Z,0
2019-04-20T02:21:27.652Z,0
2019-04-20T02:22:30.604Z,0
2019-04-20T02:23:25.318Z,0
2019-04-20T02:24:15.728Z,0
2019-04-20T02:25:14.309Z,0
2019-04-20T02:26:16.004Z,0
2019-04-20T02:27:19.718Z,0
2019-04-20T02:28:36.177Z,0
2019-04-20T02:29:39.897Z,0
2019-04-20T02:30:57.962Z,0
2019-04-20T02:32:05.087Z,0
2019-04-20T02:32:55.540Z,0
2019-04-20T02:33:58.071Z,0
2019-04-20T02:34:54.755Z,0
2019-04-20T02:36:04.845Z,0
2019-04-20T02:37:14.357Z,0
2019-04-20T02:39:21.906Z,0
2019-04-20T02:40:00.911Z,0
2019-04-20T02:41:09.858Z,0
2019-04-20T02:42:14.369Z,0
2019-04-20T02:43:25.018Z,0
2019-04-20T02:44:15.933Z,0
2019-04-20T02:45:18.646Z,0
2019-04-20T02:46:06.768Z,0
2019-04-20T02:47:14.396Z,0
2019-04-20T02:48:07.986Z,0
2019-04-20T02:50:19.190Z,0
2019-04-20T02:51:13.284Z,0
2019-04-20T02:52:22.610Z,0
2019-04-20T02:53:23.614Z,0
2019-04-20T02:54:40.828Z,0
2019-04-20T02:55:26.371Z,0
2019-04-20T02:56:32.438Z,0
2019-04-20T02:57:33.569Z,0
2019-04-20T02:58:29.088Z,0
2019-04-20T03:00:28.797Z,0
2019-04-20T03:01:23.314Z,0
2019-04-20T03:02:18.423Z,0
2019-04-20T03:03:15.882Z,0
2019-04-20T03:04:05.610Z,0
2019-04-20T03:05:16.217Z,0
2019-04-20T03:06:18.526Z,0
2019-04-20T03:07:15.211Z,0
2019-04-20T03:08:22.139Z,0
2019-04-20T03:09:27.221Z,0
2019-04-20T03:10:36.313Z,0
2019-04-20T03:11:37.867Z,0
2019-04-20T03:12:35.851Z,0
2019-04-20T03:13:31.995Z,0
2019-04-20T03:14:27.000Z,0
2019-04-20T03:15:32.906Z,0
2019-04-20T03:16:32.134Z,0
2019-04-20T03:17:36.506Z,0
2019-04-20T03:18:32.523Z,0
2019-04-20T03:19:28.444Z,0
2019-04-20T03:20:36.225Z,0
2019-04-20T03:21:38.030Z,0
2019-04-20T03:23:02.401Z,0
2019-04-20T03:23:47.123Z,0
2019-04-20T03:24:47.002Z,0
2019-04-20T03:25:45.074Z,0
2019-04-20T03:26:37.894Z,0
2019-04-20T03:27:36.447Z,0
2019-04-20T03:28:38.818Z,0
2019-04-20T03:29:43.870Z,0
2019-04-20T03:34:19.394Z,0
2019-04-20T03:36:00.354Z,0
2019-04-20T03:37:00.635Z,0
2019-04-20T03:38:00.152Z,0
2019-04-20T03:38:53.608Z,0
2019-04-20T03:39:47.589Z,0
2019-04-20T03:40:48.377Z,0
2019-04-20T03:41:43.539Z,0
2019-04-20T03:42:38.033Z,0
2019-04-20T03:43:39.021Z,4
2019-04-20T03:44:48.163Z,4
2019-04-20T03:45:48.628Z,4
2019-04-20T03:46:47.707Z,0
2019-04-20T03:47:54.379Z,4
2019-04-20T03:49:01.361Z,4
2019-04-20T03:50:06.082Z,8
2019-04-20T03:51:04.593Z,4
2019-04-20T03:52:02.278Z,8
2019-04-20T03:53:08.695Z,8
2019-04-20T03:54:05.913Z,12
2019-04-20T03:55:09.523Z,12
2019-04-20T03:56:02.209Z,16
2019-04-20T03:57:13.732Z,20
2019-04-20T03:58:08.975Z,20
2019-04-20T03:59:07.723Z,24
2019-04-20T04:00:10.161Z,28
2019-04-20T04:01:14.687Z,32
2019-04-20T04:03:26.205Z,48
2019-04-20T04:04:15.237Z,56
2019-04-20T04:05:16.478Z,60
2019-04-20T04:06:05.434Z,72
2019-04-20T04:07:01.001Z,84
2019-04-20T04:08:09.459Z,92
2019-04-20T04:09:14.999Z,108
2019-04-20T04:10:14.404Z,124
2019-04-20T04:11:16.261Z,140
2019-04-20T04:12:12.217Z,160
2019-04-20T04:13:01.053Z,180
2019-04-20T04:14:01.125Z,200
2019-04-20T04:15:02.280Z,224
2019-04-20T04:16:06.694Z,248
2019-04-20T04:17:04.618Z,272
2019-04-20T04:18:11.089Z,300
2019-04-20T04:19:12.814Z,328
2019-04-20T04:20:11.646Z,360
2019-04-20T04:21:12.866Z,392
2019-04-20T04:22:18.048Z,424
2019-04-20T04:23:27.042Z,456
2019-04-20T04:24:22.868Z,492
2019-04-20T04:25:21.059Z,528
2019-04-20T04:26:26.256Z,568
2019-04-20T04:27:32.625Z,608
2019-04-20T04:28:29.955Z,648
2019-04-20T04:29:33.410Z,688
2019-04-20T04:30:25.318Z,732
2019-04-20T04:31:33.879Z,776
2019-04-20T04:33:00.442Z,824
2019-04-20T04:34:34.691Z,916
2019-04-20T04:35:30.215Z,968
2019-04-20T04:36:36.048Z,1016
2019-04-20T04:37:38.739Z,1072
2019-04-20T04:38:42.453Z,1120
2019-04-20T04:39:46.674Z,1172
2019-04-20T04:40:49.700Z,1228
2019-04-20T04:41:43.967Z,1280
2019-04-20T04:42:48.264Z,1336
2019-04-20T04:43:44.433Z,1388
2019-04-20T04:44:42.226Z,1444
2019-04-20T04:45:30.087Z,1496
2019-04-20T04:46:29.209Z,1548
2019-04-20T04:47:30.480Z,1608
2019-04-20T04:48:35.717Z,1660
2019-04-20T04:49:34.883Z,1716
2019-04-20T04:50:33.132Z,1776
2019-04-20T04:51:42.436Z,1832
2019-04-20T04:52:42.913Z,1892
2019-04-20T04:53:45.197Z,1948
2019-04-20T04:54:46.191Z,2004
2019-04-20T04:55:45.806Z,2060
2019-04-20T04:56:37.616Z,2120
2019-04-20T04:57:37.257Z,2180
2019-04-20T04:58:38.494Z,2236
2019-04-20T04:59:38.640Z,2292
2019-04-20T05:00:40.718Z,2352
2019-04-20T05:01:40.506Z,2408
2019-04-20T05:02:48.841Z,2464
2019-04-20T05:04:09.952Z,2520
2019-04-20T05:05:07.070Z,2580
2019-04-20T05:06:03.252Z,2640
2019-04-20T05:06:58.408Z,2696
2019-04-20T05:08:01.905Z,2748
2019-04-20T05:08:53.381Z,2808
2019-04-20T05:09:48.703Z,2868
2019-04-20T05:10:49.979Z,2928
2019-04-20T05:11:59.764Z,2992
2019-04-20T05:12:52.872Z,3052
2019-04-20T05:13:58.314Z,3112
2019-04-20T05:15:02.286Z,3168
2019-04-20T05:16:10.961Z,3228
2019-04-20T05:17:07.351Z,3284
2019-04-20T05:18:11.932Z,3344
2019-04-20T05:19:18.964Z,3404
2019-04-20T05:20:18.063Z,3472
2019-04-20T05:21:23.028Z,3532
2019-04-20T05:22:21.857Z,3584
2019-04-20T05:23:16.266Z,3640
2019-04-20T05:24:17.901Z,3704
2019-04-20T05:25:22.317Z,3752
2019-04-20T05:26:25.817Z,3812
2019-04-20T05:27:27.486Z,3868
2019-04-20T05:28:20.685Z,3924
2019-04-20T05:29:14.497Z,3976
2019-04-20T05:30:08.116Z,4036
2019-04-20T05:31:11.375Z,4104
2019-04-20T05:32:16.131Z,4204
2019-04-20T05:33:25.482Z,4364
2019-04-20T05:34:30.874Z,4516
2019-04-20T05:35:30.941Z,4640
2019-04-20T05:36:38.480Z,4436
2019-04-20T05:37:41.425Z,4344
2019-04-20T05:38:41.775Z,4380
2019-04-20T05:39:38.213Z,4416
2019-04-20T05:40:38.335Z,4464
2019-04-20T05:41:38.319Z,4524
2019-04-20T05:42:44.256Z,4576
2019-04-20T05:43:36.258Z,4620
2019-04-20T05:44:45.571Z,4692
2019-04-20T05:45:39.903Z,4720
2019-04-20T05:46:47.910Z,4752
2019-04-20T05:47:48.429Z,4804
2019-04-20T05:48:50.873Z,5192
2019-04-20T05:49:46.821Z,5016
2019-04-20T05:50:52.155Z,4908
2019-04-20T05:51:47.613Z,4956
2019-04-20T05:52:59.854Z,4996
2019-04-20T05:53:53.273Z,5036
2019-04-20T05:54:57.672Z,5080
2019-04-20T05:55:54.689Z,5116
2019-04-20T05:56:58.877Z,5156
2019-04-20T05:58:02.015Z,5192
2019-04-20T05:58:56.955Z,5224
2019-04-20T06:00:07.139Z,5268
2019-04-20T06:01:03.477Z,5308
2019-04-20T06:02:03.702Z,5344
2019-04-20T06:02:59.065Z,5388
2019-04-20T06:04:03.012Z,5424
2019-04-20T06:05:12.980Z,5460
2019-04-20T06:06:21.797Z,5496
2019-04-20T06:07:08.821Z,5536
2019-04-20T06:08:05.498Z,5568
2019-04-20T06:09:11.978Z,5604
2019-04-20T06:10:18.936Z,5636
2019-04-20T06:11:09.415Z,5676
2019-04-20T06:12:28.511Z,5708
2019-04-20T06:13:11.209Z,5744
2019-04-20T06:14:03.708Z,5780
2019-04-20T06:15:09.483Z,5820
2019-04-20T06:16:13.850Z,5920
2019-04-20T06:17:17.035Z,5896
2019-04-20T06:18:15.061Z,5928
2019-04-20T06:19:27.041Z,5964
2019-04-20T06:20:20.053Z,5996
2019-04-20T06:21:25.269Z,6040
2019-04-20T06:22:28.580Z,6072
2019-04-20T06:23:27.261Z,6116
2019-04-20T06:24:29.238Z,6200
2019-04-20T06:25:39.493Z,6252
2019-04-20T06:26:37.017Z,6308
2019-04-20T06:27:29.310Z,6324
2019-04-20T06:28:22.202Z,6300
2019-04-20T06:29:22.305Z,6320
2019-04-20T06:30:26.086Z,6360
2019-04-20T06:31:31.089Z,6416
2019-04-20T06:32:33.117Z,6480
2019-04-20T06:33:50.249Z,6500
2019-04-20T06:35:55.607Z,7348
2019-04-20T06:36:40.009Z,7332
2019-04-20T06:37:36.226Z,6792
2019-04-20T06:39:41.687Z,6644
2019-04-20T06:42:00.149Z,6696
2019-04-20T06:42:39.673Z,6728
2019-04-20T06:43:45.802Z,6760
2019-04-20T06:44:41.414Z,6792
2019-04-20T06:45:54.540Z,6892
2019-04-20T06:46:52.436Z,6876
2019-04-20T06:47:51.773Z,6916
2019-04-20T06:48:52.251Z,6952
2019-04-20T06:49:48.696Z,6996
2019-04-20T06:50:49.492Z,7040
2019-04-20T06:51:53.201Z,7600
2019-04-20T06:52:49.186Z,7760
2019-04-20T06:53:51.341Z,7156
2019-04-20T06:54:48.328Z,7168
2019-04-20T06:55:59.210Z,7220
2019-04-20T06:57:55.099Z,7284
2019-04-20T06:59:03.677Z,7304
2019-04-20T07:00:05.819Z,7348
2019-04-20T07:01:03.860Z,7740
2019-04-20T07:02:11.954Z,8488
2019-04-20T07:03:01.776Z,10188
2019-04-20T07:04:31.767Z,10908
2019-04-20T07:05:10.015Z,10052
2019-04-20T07:06:26.716Z,8544
2019-04-20T07:07:11.406Z,11804
2019-04-20T07:08:29.024Z,13304
2019-04-20T07:09:16.990Z,9644
2019-04-20T07:11:18.743Z,7728
2019-04-20T07:12:12.499Z,7780
2019-04-20T07:13:07.953Z,8864
2019-04-20T07:14:04.066Z,9840
2019-04-20T07:15:14.962Z,17052
2019-04-20T07:16:18.462Z,14096
2019-04-20T07:17:26.931Z,8580
2019-04-20T07:18:18.561Z,9680
2019-04-20T07:19:18.993Z,8360
2019-04-20T07:20:15.911Z,8272
2019-04-20T07:21:23.115Z,8552
2019-04-20T07:22:31.405Z,8724
2019-04-20T07:23:26.495Z,8580
2019-04-20T07:24:25.175Z,21056
2019-04-20T07:25:29.284Z,26048
2019-04-20T07:26:31.553Z,24704
2019-04-20T07:27:22.923Z,12904
2019-04-20T07:28:32.775Z,8480
2019-04-20T07:29:36.923Z,8420
2019-04-20T07:30:29.639Z,8560
2019-04-20T07:31:35.239Z,8632
2019-04-20T07:32:27.074Z,12568
2019-04-20T07:33:32.264Z,13260
2019-04-20T07:34:36.217Z,14612
2019-04-20T07:35:30.566Z,28800
2019-04-20T07:36:37.746Z,31648
2019-04-20T07:38:41.798Z,15868
2019-04-20T07:39:40.695Z,18496
2019-04-20T07:40:38.157Z,12128
2019-04-20T07:42:00.655Z,24352
2019-04-20T07:42:47.921Z,9808
2019-04-20T07:43:57.468Z,13544
2019-04-20T07:44:49.400Z,14136
2019-04-20T07:45:36.221Z,13736
2019-04-20T07:48:07.418Z,22272
2019-04-20T07:48:48.924Z,10520
2019-04-20T07:49:45.785Z,17760
2019-04-20T07:50:40.776Z,12944
2019-04-20T07:51:35.492Z,18624
2019-04-20T07:52:43.874Z,12744
2019-04-20T07:53:50.207Z,14180
2019-04-20T07:55:12.125Z,37920
2019-04-20T07:55:53.901Z,19968
2019-04-20T07:56:53.827Z,16512
2019-04-20T07:57:51.320Z,19200
2019-04-20T07:58:47.482Z,15896
2019-04-20T07:59:56.227Z,47168
2019-04-20T08:01:10.331Z,23712
2019-04-20T08:02:09.118Z,38208
2019-04-20T08:03:03.565Z,52256
2019-04-20T08:04:01.947Z,50528
2019-04-20T08:04:56.261Z,50528
2019-04-20T08:05:51.222Z,50752
2019-04-20T08:06:48.737Z,52832
2019-04-20T08:07:53.375Z,35616
2019-04-20T08:08:57.158Z,42368
2019-04-20T08:09:53.269Z,44352
2019-04-20T08:11:00.739Z,48288
2019-04-20T08:12:11.364Z,30272
2019-04-20T08:13:09.350Z,22432
2019-04-20T08:14:12.994Z,44704
2019-04-20T08:15:11.114Z,37408
2019-04-20T08:16:06.369Z,46528
2019-04-20T08:17:26.808Z,51808
2019-04-20T08:18:13.617Z,49376
2019-04-20T08:19:13.259Z,47104
2019-04-20T08:20:16.160Z,47200
2019-04-20T08:21:16.498Z,47200
2019-04-20T08:22:24.617Z,46304
2019-04-20T08:23:17.561Z,50464
2019-04-20T08:24:15.952Z,55520
2019-04-20T08:25:08.314Z,52000
2019-04-20T08:26:05.505Z,47776
2019-04-20T08:27:04.281Z,50688
2019-04-20T08:27:59.774Z,55840
2019-04-20T08:29:09.205Z,57024
2019-04-20T08:30:20.757Z,54112
2019-04-20T08:31:18.203Z,53344
2019-04-20T08:32:24.995Z,54784
2019-04-20T08:33:24.473Z,55168
2019-04-20T08:34:31.333Z,53664
2019-04-20T08:35:31.943Z,54304
2019-04-20T08:36:26.871Z,54560
2019-04-20T08:37:26.839Z,50464
2019-04-20T08:38:58.622Z,49184
2019-04-20T08:40:36.094Z,53856
2019-04-20T08:41:28.603Z,55776
2019-04-20T08:42:39.926Z,60608
2019-04-20T08:43:47.208Z,63904
2019-04-20T08:44:53.813Z,60128
2019-04-20T08:45:42.035Z,54144
2019-04-20T08:46:38.662Z,51040
2019-04-20T08:47:44.511Z,54016
2019-04-20T08:48:43.490Z,62112
2019-04-20T08:49:41.500Z,67808
2019-04-20T08:50:44.085Z,66848
2019-04-20T08:51:50.094Z,62496
2019-04-20T08:53:03.773Z,60320
2019-04-20T08:53:45.091Z,60320
2019-04-20T08:54:37.947Z,60416
2019-04-20T08:55:41.560Z,62944
2019-04-20T08:56:36.083Z,63328
2019-04-20T08:57:27.080Z,60896
2019-04-20T08:58:27.398Z,63104
2019-04-20T08:59:28.914Z,70016
2019-04-20T09:00:33.343Z,77248
2019-04-20T09:01:32.718Z,77568
2019-04-20T09:02:30.523Z,68224
2019-04-20T09:03:44.112Z,56416
2019-04-20T09:04:37.439Z,52128
2019-04-20T09:05:44.936Z,58816
2019-04-20T09:06:45.665Z,67904
2019-04-20T09:07:47.800Z,69472
2019-04-20T09:08:46.582Z,66816
2019-04-20T09:09:52.742Z,62880
2019-04-20T09:10:56.508Z,64544
2019-04-20T09:11:54.362Z,72480
2019-04-20T09:12:53.201Z,74272
2019-04-20T09:13:45.497Z,69152
2019-04-20T09:14:40.267Z,66048
2019-04-20T09:15:40.404Z,67648
2019-04-20T09:16:47.560Z,77088
2019-04-20T09:17:47.434Z,85440
2019-04-20T09:18:50.366Z,86208
2019-04-20T09:19:50.839Z,82752
2019-04-20T09:20:53.792Z,79968
2019-04-20T09:21:51.048Z,79808
2019-04-20T09:22:58.289Z,77600
2019-04-20T09:24:10.094Z,75104
2019-04-20T09:25:13.399Z,74592
2019-04-20T09:26:10.096Z,76256
2019-04-20T09:27:04.547Z,75232
2019-04-20T09:27:56.326Z,71808
2019-04-20T09:29:09.564Z,69376
2019-04-20T09:30:04.577Z,70400
2019-04-20T09:31:09.226Z,75808
2019-04-20T09:32:11.440Z,81984
2019-04-20T09:33:15.627Z,82368
2019-04-20T09:34:14.427Z,75712
2019-04-20T09:35:14.672Z,67296
2019-04-20T09:36:10.011Z,67328
2019-04-20T09:37:22.385Z,74976
2019-04-20T09:38:15.532Z,78048
2019-04-20T09:39:14.068Z,71904
2019-04-20T09:40:16.331Z,66400
2019-04-20T09:41:27.636Z,70336
2019-04-20T09:42:01.728Z,80480
2019-04-20T09:43:02.350Z,87808
2019-04-20T09:44:02.734Z,86528
2019-04-20T09:45:05.847Z,80768
2019-04-20T09:46:08.098Z,74944
2019-04-20T09:47:06.813Z,71872
2019-04-20T09:48:11.595Z,69792
2019-04-20T09:49:15.697Z,70048
2019-04-20T09:50:22.743Z,74816
2019-04-20T09:51:25.818Z,80320
2019-04-20T09:52:21.163Z,80192
2019-04-20T09:53:24.827Z,72704
2019-04-20T09:54:26.784Z,67424
2019-04-20T09:55:24.576Z,73280
2019-04-20T09:56:26.960Z,83424
2019-04-20T09:57:32.160Z,83008
2019-04-20T09:58:25.743Z,70176
2019-04-20T09:59:33.579Z,57440
2019-04-20T10:00:29.127Z,53312
2019-04-20T10:01:25.987Z,60384
2019-04-20T10:02:23.140Z,70848
2019-04-20T10:03:16.563Z,72992
2019-04-20T10:04:17.513Z,66720
2019-04-20T10:05:17.695Z,59232
2019-04-20T10:06:23.056Z,57280
2019-04-20T10:07:23.513Z,59968
2019-04-20T10:08:19.685Z,61184
2019-04-20T10:09:26.873Z,58560
2019-04-20T10:10:31.129Z,59584
2019-04-20T10:11:21.604Z,65888
2019-04-20T10:12:22.321Z,72608
2019-04-20T10:13:23.048Z,72288
2019-04-20T10:14:24.816Z,66016
2019-04-20T10:15:27.661Z,61216
2019-04-20T10:16:26.588Z,60064
2019-04-20T10:17:31.325Z,61536
2019-04-20T10:18:28.126Z,69568
2019-04-20T10:19:32.473Z,79136
2019-04-20T10:20:33.086Z,83488
2019-04-20T10:21:30.216Z,82144
2019-04-20T10:22:30.961Z,74688
2019-04-20T10:23:32.509Z,67296
2019-04-20T10:24:32.777Z,67200
2019-04-20T10:25:33.023Z,73600
2019-04-20T10:26:34.427Z,79744
2019-04-20T10:27:34.749Z,81632
2019-04-20T10:28:35.126Z,81760
2019-04-20T10:29:35.830Z,82848
2019-04-20T10:30:36.768Z,85408
2019-04-20T10:31:42.656Z,82880
2019-04-20T10:32:42.614Z,77632
2019-04-20T10:33:39.623Z,73728
2019-04-20T10:34:39.333Z,72416
2019-04-20T10:35:41.301Z,74688
2019-04-20T10:36:41.729Z,81408
2019-04-20T10:37:41.838Z,91264
2019-04-20T10:38:42.378Z,92224
2019-04-20T10:39:42.843Z,86048
2019-04-20T10:40:56.123Z,80032
2019-04-20T10:41:50.295Z,78848
2019-04-20T10:42:46.087Z,82752
2019-04-20T10:43:46.890Z,87392
2019-04-20T10:44:48.045Z,85504
2019-04-20T10:45:47.044Z,81216
2019-04-20T10:46:49.048Z,78592
2019-04-20T10:47:48.450Z,79008
2019-04-20T10:48:51.677Z,81728
2019-04-20T10:49:50.898Z,82304
2019-04-20T10:50:50.562Z,79712
2019-04-20T10:51:51.680Z,79872
2019-04-20T10:52:52.042Z,83968
2019-04-20T10:53:54.050Z,91328
2019-04-20T10:54:54.402Z,95616
2019-04-20T10:55:54.051Z,93856
2019-04-20T10:56:55.443Z,90144
2019-04-20T10:57:55.644Z,86272
2019-04-20T10:58:56.153Z,81344
2019-04-20T10:59:57.541Z,75104
2019-04-20T11:00:57.743Z,69952
2019-04-20T11:01:58.254Z,68288
2019-04-20T11:02:59.654Z,71712
2019-04-20T11:04:00.718Z,75456
2019-04-20T11:05:00.359Z,76672
2019-04-20T11:06:01.061Z,73088
2019-04-20T11:07:02.834Z,68512
2019-04-20T11:08:02.469Z,67808
2019-04-20T11:09:04.562Z,73440
2019-04-20T11:10:13.356Z,82464
2019-04-20T11:11:13.013Z,87840
2019-04-20T11:12:06.372Z,86368
2019-04-20T11:13:07.331Z,78240
2019-04-20T11:14:15.551Z,71328
2019-04-20T11:15:08.408Z,71360
2019-04-20T11:16:08.506Z,79904
2019-04-20T11:17:08.818Z,91040
2019-04-20T11:18:09.493Z,95200
2019-04-20T11:19:11.513Z,91712
2019-04-20T11:20:10.904Z,84256
2019-04-20T11:21:11.608Z,79488
2019-04-20T11:22:12.598Z,78720
2019-04-20T11:23:13.982Z,80512
2019-04-20T11:24:14.319Z,85376
2019-04-20T11:25:14.484Z,86464
2019-04-20T11:26:16.154Z,82464
2019-04-20T11:27:16.305Z,77376
2019-04-20T11:28:16.675Z,77184
2019-04-20T11:29:18.179Z,81568
2019-04-20T11:30:18.216Z,89280
2019-04-20T11:31:19.924Z,94048
2019-04-20T11:32:20.194Z,94368
2019-04-20T11:33:20.357Z,89056
2019-04-20T11:34:23.576Z,84000
2019-04-20T11:35:28.042Z,84768
2019-04-20T11:36:23.247Z,90112
2019-04-20T11:37:22.837Z,92384
2019-04-20T11:38:24.072Z,90816
2019-04-20T11:39:25.026Z,85728
2019-04-20T11:40:24.945Z,81216
2019-04-20T11:41:29.150Z,73728
2019-04-20T11:42:27.677Z,68928
2019-04-20T11:43:27.055Z,73376
2019-04-20T11:44:30.324Z,83040
2019-04-20T11:45:28.791Z,90560
2019-04-20T11:46:30.213Z,92960
2019-04-20T11:47:29.857Z,92800
2019-04-20T11:48:31.708Z,88544
2019-04-20T11:49:31.391Z,84032
2019-04-20T11:50:31.962Z,80992
2019-04-20T11:51:33.794Z,80576
2019-04-20T11:52:38.856Z,85984
2019-04-20T11:53:34.261Z,91040
2019-04-20T11:54:34.774Z,93600
2019-04-20T11:55:36.236Z,89312
2019-04-20T11:56:40.190Z,84224
2019-04-20T11:57:37.589Z,82688
2019-04-20T11:58:38.734Z,83072
2019-04-20T11:59:39.070Z,82912
2019-04-20T12:00:46.963Z,83648
2019-04-20T12:01:47.943Z,87168
2019-04-20T12:02:44.067Z,87872
2019-04-20T12:03:51.919Z,84224
2019-04-20T12:04:49.205Z,81280
2019-04-20T12:05:46.697Z,81664
2019-04-20T12:06:43.409Z,83584
2019-04-20T12:07:44.809Z,84384
2019-04-20T12:08:45.468Z,86848
2019-04-20T12:09:45.334Z,87264
2019-04-20T12:10:49.286Z,82944
2019-04-20T12:11:59.637Z,77184
2019-04-20T12:12:51.819Z,73824
2019-04-20T12:13:48.994Z,72608
2019-04-20T12:14:48.826Z,71904
2019-04-20T12:15:49.735Z,71904
2019-04-20T12:16:50.235Z,73920
2019-04-20T12:17:51.509Z,77024
2019-04-20T12:18:52.515Z,76224
2019-04-20T12:19:53.170Z,70624
2019-04-20T12:20:54.700Z,63264
2019-04-20T12:21:53.957Z,60256
2019-04-20T12:22:54.751Z,64224
2019-04-20T12:23:56.202Z,69376
2019-04-20T12:24:56.274Z,68640
2019-04-20T12:25:56.773Z,63872
2019-04-20T12:26:58.624Z,63040
2019-04-20T12:28:00.579Z,64416
2019-04-20T12:28:58.881Z,65152
2019-04-20T12:29:59.655Z,64352
2019-04-20T12:31:06.397Z,62880
2019-04-20T12:32:03.501Z,60832
2019-04-20T12:33:03.507Z,59808
2019-04-20T12:34:02.402Z,64256
2019-04-20T12:35:04.296Z,68736
2019-04-20T12:36:03.813Z,69248
2019-04-20T12:37:05.028Z,68064
2019-04-20T12:38:05.287Z,72928
2019-04-20T12:39:06.894Z,80576
2019-04-20T12:40:07.188Z,82400
2019-04-20T12:41:08.370Z,77792
2019-04-20T12:42:09.483Z,73472
2019-04-20T12:43:09.015Z,72384
2019-04-20T12:44:09.947Z,76928
2019-04-20T12:45:11.367Z,81920
2019-04-20T12:46:13.639Z,81536
2019-04-20T12:47:12.018Z,73696
2019-04-20T12:48:13.401Z,63008
2019-04-20T12:49:13.677Z,58880
2019-04-20T12:50:13.815Z,61728
2019-04-20T12:51:15.544Z,64672
2019-04-20T12:52:16.574Z,63264
2019-04-20T12:53:17.063Z,59040
2019-04-20T12:54:16.639Z,58944
2019-04-20T12:55:17.166Z,63776
2019-04-20T12:56:17.875Z,70848
2019-04-20T12:57:18.668Z,74016
2019-04-20T12:58:20.711Z,69760
2019-04-20T12:59:21.180Z,63616
2019-04-20T13:00:21.557Z,62368
2019-04-20T13:01:22.868Z,63808
2019-04-20T13:02:23.180Z,64992
2019-04-20T13:03:23.542Z,67328
2019-04-20T13:04:24.689Z,68896
2019-04-20T13:05:24.364Z,74016
2019-04-20T13:06:25.789Z,77888
2019-04-20T13:07:26.878Z,77056
2019-04-20T13:08:33.705Z,73312
2019-04-20T13:09:28.298Z,69760
2019-04-20T13:10:27.803Z,70816
2019-04-20T13:11:28.744Z,74912
2019-04-20T13:12:30.444Z,78560
2019-04-20T13:13:30.449Z,81376
2019-04-20T13:14:30.721Z,78976
2019-04-20T13:15:32.082Z,70752
2019-04-20T13:16:32.377Z,60480
2019-04-20T13:17:32.735Z,53952
2019-04-20T13:18:33.434Z,56992
2019-04-20T13:19:35.347Z,68672
2019-04-20T13:20:36.003Z,81920
2019-04-20T13:21:36.730Z,89856
2019-04-20T13:22:37.008Z,93120
2019-04-20T13:23:37.256Z,87712
2019-04-20T13:24:38.999Z,75008
2019-04-20T13:25:39.244Z,65920
2019-04-20T13:26:39.068Z,62240
2019-04-20T13:27:40.931Z,62400
2019-04-20T13:28:41.218Z,66176
2019-04-20T13:29:41.205Z,71456
2019-04-20T13:30:41.964Z,75168
2019-04-20T13:31:42.570Z,73312
2019-04-20T13:32:43.616Z,66720
2019-04-20T13:33:45.227Z,61472
2019-04-20T13:34:44.675Z,63296
2019-04-20T13:35:46.124Z,69216
2019-04-20T13:36:46.275Z,68352
2019-04-20T13:37:46.925Z,61344
2019-04-20T13:38:47.979Z,55712
2019-04-20T13:39:48.994Z,57408
2019-04-20T13:40:48.936Z,65632
2019-04-20T13:41:59.770Z,74688
2019-04-20T13:42:50.345Z,80640
2019-04-20T13:43:51.066Z,75680
2019-04-20T13:44:52.822Z,67552
2019-04-20T13:45:53.126Z,65664
2019-04-20T13:46:53.175Z,71040
2019-04-20T13:47:55.056Z,72544
2019-04-20T13:48:55.176Z,66688
2019-04-20T13:49:55.254Z,62016
2019-04-20T13:50:56.100Z,62816
2019-04-20T13:51:57.045Z,65248
2019-04-20T13:52:58.538Z,65536
2019-04-20T13:53:59.126Z,65664
2019-04-20T13:54:59.759Z,63616
2019-04-20T13:55:59.482Z,60960
2019-04-20T13:57:00.193Z,57632
2019-04-20T13:58:02.137Z,54560
2019-04-20T13:59:01.888Z,51808